Time;durP1;ratioP1;P1;durP2;ratioP2;P2;SDS_P1;SDS_P2;PMS_P1;PMS_P2;Temp;Humidity;BMP_temperature;BMP_pressure;BME280_temperature;BME280_humidity;BME280_pressure;Samples;Min_cycle;Max_cycle;Signal;HPM_P1;HPM_P2
2022/12/11 00:01:27;;;;;;;4.97;4.57;;;19.00;37.00;;;;;;4983174;28;20262;-61
2022/12/11 00:03:52;;;;;;;4.80;4.50;;;19.00;37.00;;;;;;4980357;28;20672;-59
2022/12/11 00:06:21;;;;;;;5.20;4.83;;;19.00;37.00;;;;;;4983026;28;20755;-59
2022/12/11 00:08:49;;;;;;;4.67;4.37;;;19.00;37.80;;;;;;4988445;28;20567;-59
2022/12/11 00:11:15;;;;;;;5.30;4.90;;;19.00;37.00;;;;;;4984232;28;20473;-60
2022/12/11 00:13:41;;;;;;;4.50;4.20;;;19.00;37.00;;;;;;4988081;28;20426;-59
2022/12/11 00:16:08;;;;;;;4.90;4.50;;;19.00;37.00;;;;;;4985605;28;20464;-60
2022/12/11 00:18:34;;;;;;;5.73;5.23;;;19.00;37.00;;;;;;4984260;28;20423;-59
2022/12/11 00:21:05;;;;;;;5.07;4.67;;;19.00;37.10;;;;;;4983857;28;20434;-59
2022/12/11 00:23:31;;;;;;;5.37;4.90;;;19.00;37.00;;;;;;4985432;28;20220;-59
2022/12/11 00:25:56;;;;;;;4.97;4.60;;;19.00;37.10;;;;;;4984831;28;20971;-60
2022/12/11 00:28:22;;;;;;;5.27;4.77;;;19.00;37.00;;;;;;4982618;28;20311;-60
2022/12/11 00:30:48;;;;;;;5.07;4.67;;;19.00;37.10;;;;;;4987307;28;20240;-59
2022/12/11 00:33:14;;;;;;;5.17;4.77;;;19.00;37.00;;;;;;4978898;28;20303;-59
2022/12/11 00:35:42;;;;;;;6.23;5.20;;;19.00;37.00;;;;;;4991859;28;21627;-59
2022/12/11 00:38:12;;;;;;;4.80;4.50;;;19.00;37.00;;;;;;5001531;28;20454;-59
2022/12/11 00:40:38;;;;;;;5.23;4.83;;;19.00;37.00;;;;;;4994891;28;20482;-58
2022/12/11 00:43:03;;;;;;;4.90;4.60;;;19.00;37.00;;;;;;4996071;28;20585;-59
2022/12/11 00:45:29;;;;;;;5.30;4.90;;;19.00;37.00;;;;;;4985103;28;20313;-59
2022/12/11 00:47:54;;;;;;;4.90;4.47;;;19.00;37.00;;;;;;4980897;28;20254;-59
2022/12/11 00:50:20;;;;;;;5.20;4.90;;;19.00;37.00;;;;;;4994902;28;20326;-59
2022/12/11 00:52:45;;;;;;;5.10;4.70;;;19.00;37.00;;;;;;4999034;28;20246;-60
2022/12/11 00:55:12;;;;;;;5.37;4.87;;;19.00;37.00;;;;;;4981349;28;20335;-59
2022/12/11 00:57:38;;;;;;;5.10;4.80;;;19.00;37.00;;;;;;4977584;28;20207;-59
2022/12/11 01:00:05;;;;;;;4.80;4.40;;;19.00;37.00;;;;;;4977954;28;21123;-60
2022/12/11 01:02:32;;;;;;;4.93;4.60;;;19.00;36.90;;;;;;4974355;28;20640;-59
2022/12/11 01:04:57;;;;;;;5.20;4.80;;;19.00;37.00;;;;;;4981021;28;20494;-59
2022/12/11 01:07:24;;;;;;;6.13;5.50;;;19.00;36.90;;;;;;4977549;28;20440;-60
2022/12/11 01:12:34;;;;;;;5.33;4.90;;;19.00;36.90;;;;;;4977851;28;20480;-59
2022/12/11 01:14:59;;;;;;;4.47;4.07;;;19.00;37.00;;;;;;4987151;28;20425;-60
2022/12/11 01:17:25;;;;;;;6.60;6.00;;;19.00;36.90;;;;;;4975994;28;20244;-61
2022/12/11 01:19:53;;;;;;;5.83;5.37;;;19.00;36.90;;;;;;4984563;28;20568;-59
2022/12/11 01:22:18;;;;;;;4.43;4.03;;;19.00;36.90;;;;;;4987961;28;20315;-60
2022/12/11 01:24:44;;;;;;;5.07;4.73;;;19.00;36.90;;;;;;4984117;28;20910;-59
2022/12/11 01:27:09;;;;;;;4.53;4.23;;;19.00;36.90;;;;;;4992420;28;20739;-59
2022/12/11 01:29:35;;;;;;;4.40;4.10;;;19.00;36.90;;;;;;4988831;28;20228;-59
2022/12/11 01:32:00;;;;;;;5.50;5.10;;;19.00;36.90;;;;;;4990807;28;20220;-59
2022/12/11 01:34:29;;;;;;;5.13;4.73;;;19.00;36.90;;;;;;4999012;28;20283;-60
2022/12/11 01:36:54;;;;;;;5.40;5.00;;;19.00;36.90;;;;;;4993115;28;20234;-59
2022/12/11 01:39:20;;;;;;;4.53;4.23;;;19.00;36.90;;;;;;4994678;28;20776;-59
2022/12/11 01:41:45;;;;;;;5.27;4.77;;;19.00;37.70;;;;;;4991900;28;20227;-59
2022/12/11 01:44:14;;;;;;;5.30;4.80;;;19.00;36.90;;;;;;4982847;28;20707;-59
2022/12/11 01:46:40;;;;;;;5.47;4.87;;;19.00;36.90;;;;;;4972299;28;20297;-59
2022/12/11 01:49:11;;;;;;;5.37;4.90;;;19.00;36.90;;;;;;4980881;28;20485;-59
2022/12/11 01:51:57;;;;;;;5.20;4.80;;;19.00;36.90;;;;;;4981098;28;20527;-59
2022/12/11 01:54:26;;;;;;;5.07;4.67;;;19.00;36.90;;;;;;4989069;28;20442;-59
2022/12/11 01:56:54;;;;;;;5.00;4.60;;;19.00;36.90;;;;;;4988482;28;20589;-59
2022/12/11 01:59:25;;;;;;;5.70;5.20;;;19.00;36.90;;;;;;4977442;28;20493;-59
2022/12/11 02:02:11;;;;;;;5.33;4.83;;;19.00;36.80;;;;;;4983172;28;20872;-59
2022/12/11 02:04:38;;;;;;;5.17;4.77;;;19.00;36.90;;;;;;4980802;28;20464;-59
2022/12/11 02:07:05;;;;;;;4.60;4.30;;;19.00;36.90;;;;;;4980947;28;20771;-60
2022/12/11 02:09:34;;;;;;;4.70;4.40;;;19.00;36.90;;;;;;4974155;28;20470;-59
2022/12/11 02:12:23;;;;;;;4.40;4.20;;;19.00;36.90;;;;;;4975843;28;20564;-59
2022/12/11 02:15:14;;;;;;;4.90;4.50;;;19.00;36.80;;;;;;4992103;28;20486;-59
2022/12/11 02:18:07;;;;;;;5.63;5.13;;;19.00;36.80;;;;;;4980401;28;20488;-59
2022/12/11 02:20:53;;;;;;;4.63;4.30;;;19.00;36.90;;;;;;4972797;28;20500;-60
2022/12/11 02:23:40;;;;;;;5.03;4.70;;;19.00;36.90;;;;;;4985295;28;20428;-59
2022/12/11 02:26:32;;;;;;;4.50;4.10;;;19.00;36.90;;;;;;4978865;28;20432;-59
2022/12/11 02:29:00;;;;;;;5.03;4.70;;;19.00;36.90;;;;;;4992816;28;20501;-59
2022/12/11 02:31:37;;;;;;;5.33;4.97;;;19.00;36.90;;;;;;4981476;28;20448;-60
2022/12/11 02:34:17;;;;;;;5.13;4.67;;;19.00;36.90;;;;;;4995591;28;20448;-59
2022/12/11 02:36:53;;;;;;;5.67;4.60;;;19.00;36.90;;;;;;4988577;28;20429;-59
2022/12/11 02:39:21;;;;;;;5.13;4.70;;;19.00;36.90;;;;;;4983290;28;20957;-61
2022/12/11 02:41:49;;;;;;;5.07;4.67;;;19.00;37.70;;;;;;4974151;28;20424;-59
2022/12/11 02:44:21;;;;;;;5.10;4.70;;;19.00;36.90;;;;;;4980491;28;20456;-59
2022/12/11 02:46:47;;;;;;;5.17;4.77;;;19.00;36.90;;;;;;4977070;28;20433;-61
2022/12/11 02:49:13;;;;;;;4.87;4.57;;;19.00;36.90;;;;;;4986198;28;20475;-59
2022/12/11 02:51:41;;;;;;;5.47;4.97;;;19.00;36.90;;;;;;4992095;28;20607;-60
2022/12/11 02:54:21;;;;;;;5.00;4.70;;;19.00;36.90;;;;;;4976469;28;20987;-59
2022/12/11 02:56:52;;;;;;;5.27;4.77;;;19.00;36.90;;;;;;4997119;28;21408;-60
2022/12/11 02:59:28;;;;;;;4.30;4.00;;;19.00;36.80;;;;;;4978688;28;20419;-59
2022/12/11 03:01:54;;;;;;;6.40;4.63;;;19.00;37.60;;;;;;4971655;28;20437;-59
2022/12/11 03:04:23;;;;;;;5.00;4.70;;;19.00;36.90;;;;;;4984261;28;21175;-60
2022/12/11 03:06:52;;;;;;;4.73;4.33;;;19.00;36.90;;;;;;4988912;28;20226;-59
2022/12/11 03:09:17;;;;;;;4.40;4.10;;;19.00;36.90;;;;;;4981286;28;20447;-59
2022/12/11 03:11:43;;;;;;;5.00;4.60;;;19.00;36.90;;;;;;4972747;28;20440;-60
2022/12/11 03:14:08;;;;;;;5.10;4.70;;;19.00;36.90;;;;;;4981081;28;20267;-59
2022/12/11 03:16:35;;;;;;;4.50;4.10;;;19.00;36.80;;;;;;4970918;28;20263;-60
2022/12/11 03:19:23;;;;;;;4.77;4.47;;;19.00;36.90;;;;;;4974501;28;20306;-59
2022/12/11 03:22:08;;;;;;;4.50;4.20;;;19.00;36.80;;;;;;4987652;28;20456;-59
2022/12/11 03:24:42;;;;;;;4.70;4.40;;;19.00;36.80;;;;;;4991939;28;20471;-60
2022/12/11 03:27:31;;;;;;;5.00;4.60;;;19.00;36.80;;;;;;4993870;28;20801;-60
2022/12/11 03:30:03;;;;;;;4.63;4.33;;;19.00;36.90;;;;;;4990828;28;20507;-60
2022/12/11 03:32:43;;;;;;;4.87;4.57;;;19.00;36.80;;;;;;4987541;28;20509;-59
2022/12/11 03:35:40;;;;;;;4.73;4.43;;;19.00;36.80;;;;;;4993497;28;20476;-59
2022/12/11 03:38:21;;;;;;;4.57;4.27;;;19.00;36.90;;;;;;4974552;28;20432;-60
2022/12/11 03:40:52;;;;;;;5.60;5.20;;;19.00;36.90;;;;;;4977365;28;20471;-60
2022/12/11 03:43:20;;;;;;;4.13;3.90;;;19.00;36.90;;;;;;4993182;28;21068;-59
2022/12/11 03:45:47;;;;;;;5.20;4.80;;;19.00;36.80;;;;;;4975271;28;20415;-60
2022/12/11 03:48:15;;;;;;;4.10;3.80;;;19.00;36.80;;;;;;4977112;28;20503;-59
2022/12/11 03:50:41;;;;;;;4.73;4.33;;;19.00;36.80;;;;;;4976879;28;21309;-59
2022/12/11 03:53:07;;;;;;;4.83;4.53;;;19.00;36.80;;;;;;4980148;28;20440;-61
2022/12/11 03:55:36;;;;;;;4.87;4.57;;;19.00;36.80;;;;;;4975000;28;20710;-59
2022/12/11 03:58:02;;;;;;;5.07;4.77;;;19.00;36.80;;;;;;4971617;28;20232;-59
2022/12/11 04:00:28;;;;;;;4.27;3.97;;;19.00;36.80;;;;;;4985570;28;20530;-60
2022/12/11 04:03:12;;;;;;;4.97;4.47;;;19.00;36.80;;;;;;4980421;28;20315;-60
2022/12/11 04:05:40;;;;;;;4.60;4.20;;;19.00;36.80;;;;;;4974312;28;21031;-59
2022/12/11 04:08:05;;;;;;;4.13;3.83;;;19.00;36.80;;;;;;4975262;28;20453;-60
2022/12/11 04:10:31;;;;;;;4.67;4.33;;;19.00;36.80;;;;;;4975198;28;21086;-59
2022/12/11 04:12:56;;;;;;;4.70;4.30;;;19.00;36.80;;;;;;4973064;28;20248;-59
2022/12/11 04:15:22;;;;;;;4.47;3.87;;;19.00;36.80;;;;;;4976853;28;20230;-59
2022/12/11 04:26:17;;;;;;;4.73;4.33;;;19.00;36.80;;;;;;4974614;28;20992;-60
2022/12/11 04:28:44;;;;;;;4.00;3.70;;;19.00;36.80;;;;;;4992596;28;21160;-60
2022/12/11 04:31:15;;;;;;;3.90;3.60;;;19.00;36.80;;;;;;4978564;28;20765;-60
2022/12/11 04:33:41;;;;;;;3.70;3.50;;;19.00;36.80;;;;;;4983533;28;20476;-59
2022/12/11 04:36:08;;;;;;;4.00;3.80;;;19.00;36.80;;;;;;4983437;28;20464;-59
2022/12/11 04:38:34;;;;;;;4.80;4.40;;;19.00;36.80;;;;;;4986800;28;21116;-59
2022/12/11 04:41:10;;;;;;;3.43;3.23;;;19.00;36.80;;;;;;4983642;28;20966;-60
2022/12/11 04:43:36;;;;;;;4.20;3.90;;;19.00;36.80;;;;;;4975725;28;20596;-60
2022/12/11 04:46:05;;;;;;;4.10;3.80;;;19.00;36.80;;;;;;4987100;28;20441;-61
2022/12/11 04:48:31;;;;;;;3.90;3.60;;;19.00;36.80;;;;;;4980890;28;20220;-60
2022/12/11 04:50:56;;;;;;;4.50;4.10;;;19.00;36.80;;;;;;4987630;28;20484;-60
2022/12/11 04:53:22;;;;;;;4.07;3.77;;;19.00;36.70;;;;;;4994855;28;20278;-61
2022/12/11 04:55:48;;;;;;;4.10;3.70;;;19.00;36.70;;;;;;4986546;28;20600;-59
2022/12/11 04:58:13;;;;;;;3.80;3.60;;;19.10;36.80;;;;;;4978034;28;20372;-59
2022/12/11 05:00:40;;;;;;;3.93;3.73;;;19.00;36.70;;;;;;4988086;28;20250;-60
2022/12/11 05:03:05;;;;;;;4.17;3.87;;;19.10;36.70;;;;;;4984399;28;20216;-59
2022/12/11 05:05:31;;;;;;;3.43;3.23;;;19.10;36.70;;;;;;4998908;28;20958;-60
2022/12/11 05:07:56;;;;;;;3.60;3.40;;;19.10;36.70;;;;;;4993142;28;20228;-60
2022/12/11 05:10:22;;;;;;;3.53;3.33;;;19.10;36.70;;;;;;4984619;28;20232;-60
2022/12/11 05:12:48;;;;;;;3.53;3.33;;;19.10;36.70;;;;;;4997874;28;20674;-60
2022/12/11 05:15:13;;;;;;;4.30;4.00;;;19.10;36.60;;;;;;4997102;28;20679;-60
2022/12/11 05:17:39;;;;;;;4.03;3.73;;;19.10;36.80;;;;;;4983663;28;20224;-60
2022/12/11 05:20:05;;;;;;;3.83;3.53;;;19.10;36.60;;;;;;4970666;28;20225;-61
2022/12/11 05:22:31;;;;;;;4.13;3.93;;;19.20;36.70;;;;;;4989351;28;20341;-59
2022/12/11 05:24:56;;;;;;;3.57;3.37;;;19.20;37.40;;;;;;4974702;28;20789;-60
2022/12/11 05:27:22;;;;;;;4.30;4.00;;;19.10;36.60;;;;;;4977482;28;20220;-61
2022/12/11 05:29:48;;;;;;;4.43;4.13;;;19.20;36.70;;;;;;4980752;28;20231;-60
2022/12/11 05:32:13;;;;;;;3.73;3.53;;;19.20;36.70;;;;;;4989868;28;21187;-59
2022/12/11 05:34:39;;;;;;;3.40;3.20;;;19.10;36.50;;;;;;5000446;28;20250;-60
2022/12/11 05:37:04;;;;;;;3.80;3.50;;;19.10;36.50;;;;;;5007509;28;20246;-60
2022/12/11 05:39:30;;;;;;;3.77;3.50;;;19.20;36.60;;;;;;5000199;28;20276;-60
2022/12/11 05:41:55;;;;;;;3.50;3.20;;;19.20;36.60;;;;;;5000848;28;20211;-60
2022/12/11 05:44:21;;;;;;;3.53;3.33;;;19.20;36.60;;;;;;5003851;28;20227;-60
2022/12/11 05:46:47;;;;;;;4.17;3.87;;;19.20;36.60;;;;;;5002320;28;20266;-60
2022/12/11 05:49:12;;;;;;;3.77;3.57;;;19.20;36.60;;;;;;5002595;28;20226;-60
2022/12/11 05:51:38;;;;;;;3.57;3.37;;;19.20;36.60;;;;;;4999740;28;20273;-59
2022/12/11 05:54:04;;;;;;;3.77;3.37;;;19.20;36.60;;;;;;4991415;28;20298;-60
2022/12/11 05:56:32;;;;;;;2.63;2.43;;;19.20;36.60;;;;;;4995204;28;20458;-59
2022/12/11 05:58:59;;;;;;;3.90;3.60;;;19.20;36.50;;;;;;4999879;28;20215;-59
2022/12/11 06:01:28;;;;;;;3.30;3.10;;;19.20;36.50;;;;;;4986625;28;21138;-59
2022/12/11 06:03:55;;;;;;;3.60;3.40;;;19.20;36.50;;;;;;4974700;28;20924;-60
2022/12/11 06:06:20;;;;;;;3.87;3.67;;;19.20;36.50;;;;;;4979295;28;20436;-59
2022/12/11 06:08:52;;;;;;;3.07;2.87;;;19.20;36.60;;;;;;4987447;28;20436;-59
2022/12/11 06:11:18;;;;;;;3.60;3.37;;;19.20;36.50;;;;;;4974346;28;20236;-59
2022/12/11 06:13:43;;;;;;;3.40;3.20;;;19.20;36.50;;;;;;4980161;28;21076;-59
2022/12/11 06:16:09;;;;;;;3.60;3.40;;;19.20;36.50;;;;;;4979482;28;20942;-59
2022/12/11 06:18:37;;;;;;;4.07;3.77;;;19.20;36.50;;;;;;4984630;28;20223;-59
2022/12/11 06:21:11;;;;;;;2.80;2.60;;;19.20;36.50;;;;;;4980529;28;20515;-59
2022/12/11 06:23:36;;;;;;;3.47;3.23;;;19.20;36.50;;;;;;4989772;28;20932;-59
2022/12/11 06:26:03;;;;;;;3.30;3.10;;;19.20;36.50;;;;;;4997204;28;20454;-60
2022/12/11 06:28:28;;;;;;;3.07;2.87;;;19.20;36.60;;;;;;5001865;28;20215;-60
2022/12/11 06:30:57;;;;;;;2.93;2.73;;;19.20;36.50;;;;;;4998524;28;20483;-60
2022/12/11 06:33:22;;;;;;;4.50;4.20;;;19.20;36.50;;;;;;5000616;28;20223;-59
2022/12/11 06:35:48;;;;;;;4.00;3.70;;;19.20;36.50;;;;;;5000580;28;20453;-59
2022/12/11 06:38:13;;;;;;;3.40;3.10;;;19.20;36.40;;;;;;4996957;28;21315;-60
2022/12/11 06:40:39;;;;;;;3.87;3.57;;;19.20;36.50;;;;;;4990227;28;20242;-59
2022/12/11 06:43:05;;;;;;;3.20;3.00;;;19.20;36.50;;;;;;4997380;28;20226;-59
2022/12/11 06:45:30;;;;;;;3.57;3.27;;;19.20;36.40;;;;;;4998025;28;20426;-59
2022/12/11 06:47:56;;;;;;;3.33;3.13;;;19.20;36.50;;;;;;4975782;28;20214;-60
2022/12/11 06:50:21;;;;;;;3.90;3.60;;;19.20;36.40;;;;;;4998116;28;20228;-60
2022/12/11 06:52:47;;;;;;;3.07;2.87;;;19.20;36.50;;;;;;4995849;28;21802;-59
2022/12/11 06:55:12;;;;;;;3.60;3.40;;;19.20;36.30;;;;;;4992606;28;20222;-59
2022/12/11 06:57:38;;;;;;;2.90;2.70;;;19.20;36.30;;;;;;4995308;28;20207;-60
2022/12/11 07:00:04;;;;;;;3.53;3.33;;;19.20;36.30;;;;;;4989579;28;20219;-59
2022/12/11 07:02:29;;;;;;;2.60;2.50;;;19.20;36.30;;;;;;4993536;28;20733;-60
2022/12/11 07:04:55;;;;;;;3.13;2.93;;;19.20;36.30;;;;;;4993011;28;20515;-59
2022/12/11 07:07:20;;;;;;;3.00;2.80;;;19.30;36.50;;;;;;4984994;28;20231;-58
2022/12/11 07:09:46;;;;;;;5.80;3.53;;;19.20;36.30;;;;;;4989080;28;20778;-60
2022/12/11 07:12:11;;;;;;;3.20;3.00;;;19.20;36.30;;;;;;4982311;28;20257;-59
2022/12/11 07:14:38;;;;;;;3.10;2.90;;;19.20;36.30;;;;;;4975815;28;20242;-61
2022/12/11 07:17:03;;;;;;;2.80;2.63;;;19.30;36.50;;;;;;4977108;28;20436;-59
2022/12/11 07:19:29;;;;;;;2.70;2.50;;;19.20;36.40;;;;;;4982359;28;20224;-59
2022/12/11 07:21:55;;;;;;;3.23;3.03;;;19.30;36.40;;;;;;4985434;28;20624;-59
2022/12/11 07:24:20;;;;;;;3.40;3.20;;;19.20;37.10;;;;;;4977535;28;20217;-59
2022/12/11 07:26:46;;;;;;;2.90;2.70;;;19.20;36.30;;;;;;4993171;28;20215;-59
2022/12/11 07:29:12;;;;;;;3.07;2.87;;;19.30;36.30;;;;;;4992608;28;20231;-59
2022/12/11 07:31:37;;;;;;;3.20;2.90;;;19.30;36.40;;;;;;4996251;28;20691;-59
2022/12/11 07:34:05;;;;;;;3.70;3.40;;;19.20;36.20;;;;;;5000086;28;20215;-60
2022/12/11 07:36:32;;;;;;;2.97;2.77;;;19.20;36.30;;;;;;4987518;28;20578;-60
2022/12/11 07:38:59;;;;;;;3.17;2.97;;;19.30;36.30;;;;;;4986108;28;20456;-59
2022/12/11 07:41:26;;;;;;;3.60;3.40;;;19.20;36.20;;;;;;4974059;28;20481;-59
2022/12/11 07:43:52;;;;;;;3.23;3.03;;;19.20;36.20;;;;;;4980307;28;20429;-61
2022/12/11 07:46:20;;;;;;;2.87;2.63;;;19.20;36.20;;;;;;4988791;28;20958;-59
2022/12/11 07:48:47;;;;;;;3.40;3.20;;;19.30;36.30;;;;;;4979544;28;20464;-59
2022/12/11 07:51:18;;;;;;;3.83;2.63;;;19.30;36.30;;;;;;4992691;28;20472;-60
2022/12/11 07:53:46;;;;;;;2.53;2.43;;;19.30;36.30;;;;;;4994056;28;20466;-60
2022/12/11 07:56:12;;;;;;;3.03;2.83;;;19.30;36.30;;;;;;4994727;28;21022;-59
2022/12/11 07:58:37;;;;;;;2.73;2.53;;;19.30;36.30;;;;;;4983097;28;20421;-59
2022/12/11 08:01:04;;;;;;;3.43;3.23;;;19.30;36.30;;;;;;4984981;28;20424;-59
2022/12/11 08:03:30;;;;;;;2.30;2.20;;;19.30;36.30;;;;;;4979699;28;20236;-59
2022/12/11 08:05:55;;;;;;;3.50;3.20;;;19.30;36.40;;;;;;4987163;28;20843;-59
2022/12/11 08:08:21;;;;;;;2.80;2.50;;;19.30;36.30;;;;;;4990344;28;20247;-61
2022/12/11 08:10:47;;;;;;;2.70;2.50;;;19.30;36.30;;;;;;4995763;28;20231;-61
2022/12/11 08:13:12;;;;;;;2.60;2.40;;;19.30;36.30;;;;;;4983445;28;20594;-61
2022/12/11 08:15:38;;;;;;;2.97;2.77;;;19.30;36.30;;;;;;5000018;28;20264;-59
2022/12/11 08:18:04;;;;;;;2.70;2.50;;;19.30;36.30;;;;;;5001185;28;20223;-60
2022/12/11 08:20:30;;;;;;;3.20;3.00;;;19.30;36.30;;;;;;4997195;28;20843;-59
2022/12/11 08:22:56;;;;;;;2.40;2.23;;;19.30;36.30;;;;;;4983561;28;20476;-59
2022/12/11 08:25:22;;;;;;;2.40;2.27;;;19.30;36.20;;;;;;5001318;28;20227;-59
2022/12/11 08:27:47;;;;;;;3.00;2.80;;;19.30;36.20;;;;;;5003385;28;20426;-59
2022/12/11 08:30:13;;;;;;;3.17;2.97;;;19.30;36.20;;;;;;5002462;28;20928;-62
2022/12/11 08:32:39;;;;;;;3.07;2.87;;;19.40;36.20;;;;;;4982551;28;20220;-59
2022/12/11 08:35:05;;;;;;;2.80;2.63;;;19.40;36.20;;;;;;4981369;28;20232;-60
2022/12/11 08:37:30;;;;;;;2.80;2.60;;;19.40;36.10;;;;;;4983818;28;20711;-62
2022/12/11 08:39:56;;;;;;;2.97;2.77;;;19.40;36.10;;;;;;4970655;28;20461;-60
2022/12/11 08:42:21;;;;;;;2.77;2.57;;;19.50;36.20;;;;;;4980897;28;20278;-59
2022/12/11 08:44:47;;;;;;;2.80;2.60;;;19.50;36.20;;;;;;4984382;28;20258;-61
2022/12/11 08:47:14;;;;;;;2.60;2.40;;;19.50;36.10;;;;;;4980292;28;20326;-60
2022/12/11 08:49:39;;;;;;;3.00;2.80;;;19.50;36.20;;;;;;4987137;28;20219;-59
2022/12/11 08:52:05;;;;;;;2.60;2.40;;;19.50;36.20;;;;;;4986136;28;20520;-59
2022/12/11 08:54:31;;;;;;;2.70;2.50;;;19.50;36.20;;;;;;4989537;28;20731;-59
2022/12/11 08:56:56;;;;;;;3.00;2.80;;;19.50;36.30;;;;;;4988140;28;20684;-59
2022/12/11 08:59:24;;;;;;;2.23;2.13;;;19.50;36.20;;;;;;4990817;28;20247;-63
2022/12/11 09:01:49;;;;;;;2.53;2.33;;;19.40;36.30;;;;;;4983620;28;20238;-62
2022/12/11 09:04:15;;;;;;;4.10;2.40;;;19.40;36.30;;;;;;4982307;28;20774;-63
2022/12/11 09:06:40;;;;;;;2.50;2.30;;;19.40;36.30;;;;;;4981919;28;20203;-62
2022/12/11 09:09:06;;;;;;;2.80;2.60;;;19.40;36.40;;;;;;4989166;28;20239;-61
2022/12/11 09:11:35;;;;;;;2.83;2.27;;;19.40;36.30;;;;;;4997386;28;20226;-62
2022/12/11 09:14:01;;;;;;;3.30;2.80;;;19.40;36.40;;;;;;4978817;28;20220;-61
2022/12/11 09:16:27;;;;;;;2.80;2.60;;;19.40;36.30;;;;;;4981980;28;20425;-61
2022/12/11 09:18:55;;;;;;;2.50;2.40;;;19.40;36.40;;;;;;4978504;28;20432;-62
2022/12/11 09:21:27;;;;;;;2.50;2.30;;;19.40;36.40;;;;;;4981290;28;21012;-62
2022/12/11 09:23:57;;;;;;;1.90;1.80;;;19.40;36.40;;;;;;4984761;28;20440;-60
2022/12/11 09:26:23;;;;;;;2.23;2.03;;;19.40;36.40;;;;;;5001400;28;20868;-60
2022/12/11 09:28:52;;;;;;;2.80;2.30;;;19.30;36.40;;;;;;5004150;28;20500;-65
2022/12/11 09:31:22;;;;;;;2.10;2.00;;;19.40;36.40;;;;;;5002739;28;20525;-63
2022/12/11 09:33:48;;;;;;;2.43;2.33;;;19.30;36.30;;;;;;4986847;28;20451;-62
2022/12/11 09:36:14;;;;;;;2.83;2.50;;;19.30;36.30;;;;;;4984105;28;20967;-62
2022/12/11 09:38:42;;;;;;;2.40;2.30;;;19.30;36.30;;;;;;4979752;28;20462;-62
2022/12/11 09:41:20;;;;;;;2.30;2.20;;;19.40;36.40;;;;;;4981393;28;20220;-62
2022/12/11 09:44:07;;;;;;;2.40;2.20;;;19.30;36.30;;;;;;4982376;28;20458;-62
2022/12/11 09:46:35;;;;;;;2.73;2.50;;;19.30;36.30;;;;;;4987324;28;20468;-62
2022/12/11 09:49:03;;;;;;;2.43;2.13;;;19.30;36.30;;;;;;4991341;28;20779;-62
2022/12/11 09:51:38;;;;;;;3.30;2.57;;;19.30;36.40;;;;;;4983745;28;20467;-63
2022/12/11 09:54:04;;;;;;;2.80;2.60;;;19.30;36.30;;;;;;4995137;28;20439;-61
2022/12/11 09:56:41;;;;;;;3.27;2.97;;;19.30;36.40;;;;;;5002754;28;20432;-62
2022/12/11 09:59:48;;;;;;;2.57;2.40;;;19.30;36.50;;;;;;4997920;28;20542;-62
2022/12/11 10:02:23;;;;;;;2.70;2.50;;;19.30;36.40;;;;;;4982242;28;20533;-62
2022/12/11 10:04:48;;;;;;;5.50;2.40;;;19.30;36.50;;;;;;5000071;28;20545;-61
2022/12/11 10:07:21;;;;;;;2.57;2.37;;;19.30;36.50;;;;;;4993162;28;20526;-62
2022/12/11 10:10:12;;;;;;;2.60;2.40;;;19.30;36.60;;;;;;4983779;28;20782;-62
2022/12/11 10:12:56;;;;;;;3.00;2.80;;;19.30;36.50;;;;;;4985272;28;20477;-62
2022/12/11 10:15:24;;;;;;;2.90;2.70;;;19.20;36.50;;;;;;4997149;28;20454;-61
2022/12/11 10:17:54;;;;;;;4.83;2.77;;;19.20;37.20;;;;;;5001825;28;20448;-61
2022/12/11 10:20:28;;;;;;;3.00;2.80;;;19.20;36.50;;;;;;5001742;28;20476;-61
2022/12/11 10:22:55;;;;;;;3.20;3.00;;;19.20;36.50;;;;;;4983820;28;21005;-62
2022/12/11 10:25:34;;;;;;;3.47;2.90;;;19.20;36.40;;;;;;4989232;28;20517;-61
2022/12/11 10:28:07;;;;;;;3.43;2.70;;;19.30;36.60;;;;;;4997226;28;20430;-61
2022/12/11 10:30:36;;;;;;;2.67;2.40;;;19.30;36.50;;;;;;5000230;28;20795;-62
2022/12/11 10:33:18;;;;;;;2.70;2.50;;;19.20;36.40;;;;;;4999347;28;20843;-62
2022/12/11 10:35:56;;;;;;;3.03;2.83;;;19.20;36.40;;;;;;4995071;28;20436;-60
2022/12/11 10:38:30;;;;;;;4.30;2.63;;;19.20;36.40;;;;;;4999339;28;20439;-60
2022/12/11 10:41:02;;;;;;;3.53;2.30;;;19.20;36.40;;;;;;4982107;28;20421;-61
2022/12/11 10:43:36;;;;;;;2.40;2.20;;;19.20;36.30;;;;;;4981525;28;20444;-60
2022/12/11 10:46:04;;;;;;;2.77;2.50;;;19.20;36.30;;;;;;4985996;28;20416;-61
2022/12/11 10:48:29;;;;;;;3.17;2.97;;;19.20;36.40;;;;;;4974607;28;20524;-60
2022/12/11 10:51:02;;;;;;;2.43;2.20;;;19.20;36.40;;;;;;4984635;28;20542;-61
2022/12/11 10:53:29;;;;;;;2.50;2.30;;;19.20;36.40;;;;;;4984729;28;20222;-63
2022/12/11 10:55:57;;;;;;;2.40;2.20;;;19.20;36.30;;;;;;4981436;28;20479;-62
2022/12/11 10:58:26;;;;;;;2.60;2.40;;;19.20;36.30;;;;;;4978109;28;21336;-63
2022/12/11 11:01:07;;;;;;;2.40;2.20;;;19.20;36.30;;;;;;4995841;28;20440;-62
2022/12/11 11:03:34;;;;;;;2.43;2.23;;;19.20;36.30;;;;;;4974118;28;20470;-62
2022/12/11 11:06:13;;;;;;;2.70;2.50;;;19.20;36.30;;;;;;4984450;28;20496;-62
2022/12/11 11:08:42;;;;;;;2.53;2.30;;;19.20;36.30;;;;;;4980079;28;20466;-60
2022/12/11 11:11:25;;;;;;;2.27;2.10;;;19.20;36.30;;;;;;4972221;28;20564;-61
2022/12/11 11:14:02;;;;;;;2.50;2.30;;;19.20;36.40;;;;;;4981670;28;20518;-61
2022/12/11 11:16:28;;;;;;;3.07;2.70;;;19.20;36.40;;;;;;4968244;28;20463;-60
2022/12/11 11:18:56;;;;;;;3.30;2.97;;;19.20;36.30;;;;;;4986697;28;20519;-60
2022/12/11 11:21:25;;;;;;;2.50;2.40;;;19.20;36.30;;;;;;4989155;28;20227;-61
2022/12/11 11:23:52;;;;;;;2.90;2.70;;;19.20;36.30;;;;;;4988428;28;20425;-61
2022/12/11 11:26:19;;;;;;;2.77;2.53;;;19.20;36.30;;;;;;4986752;28;20468;-61
2022/12/11 11:28:54;;;;;;;2.40;1.90;;;19.20;36.40;;;;;;4984594;28;20487;-61
2022/12/11 11:31:29;;;;;;;2.93;2.73;;;19.20;36.30;;;;;;4981805;28;20549;-61
2022/12/11 11:33:58;;;;;;;3.43;2.57;;;19.30;36.50;;;;;;4978453;28;21367;-61
2022/12/11 11:36:26;;;;;;;2.90;2.70;;;19.20;36.40;;;;;;4980526;28;20796;-61
2022/12/11 11:39:29;;;;;;;3.00;2.80;;;19.30;36.50;;;;;;4976299;28;20436;-62
2022/12/11 11:42:02;;;;;;;2.60;2.40;;;19.30;36.50;;;;;;4984910;28;20445;-61
2022/12/11 11:44:43;;;;;;;4.70;3.13;;;19.30;36.50;;;;;;5000435;28;20495;-62
2022/12/11 11:47:23;;;;;;;3.10;2.90;;;19.30;36.60;;;;;;4995786;28;20447;-61
2022/12/11 11:50:02;;;;;;;3.03;2.83;;;19.30;36.60;;;;;;4985006;28;21672;-61
2022/12/11 11:52:47;;;;;;;3.00;2.80;;;19.30;36.60;;;;;;4984373;28;21155;-60
2022/12/11 11:55:41;;;;;;;3.00;2.73;;;19.30;36.50;;;;;;4987194;28;20431;-61
2022/12/11 11:58:18;;;;;;;5.30;2.83;;;19.30;36.60;;;;;;4982862;28;20544;-61
2022/12/11 12:00:43;;;;;;;3.50;3.20;;;19.30;36.60;;;;;;4982795;28;20502;-61
2022/12/11 12:03:13;;;;;;;2.57;2.37;;;19.30;36.70;;;;;;4982404;28;21127;-61
2022/12/11 12:06:08;;;;;;;3.57;3.30;;;19.30;36.70;;;;;;4980960;28;20241;-60
2022/12/11 12:09:01;;;;;;;2.70;2.47;;;19.30;36.70;;;;;;4983922;28;20448;-61
2022/12/11 12:11:37;;;;;;;3.73;3.43;;;19.30;36.70;;;;;;4984016;28;20505;-61
2022/12/11 12:14:20;;;;;;;3.23;2.93;;;19.30;36.70;;;;;;4979009;28;20500;-61
2022/12/11 12:17:16;;;;;;;3.50;3.30;;;19.20;36.60;;;;;;4987465;28;20435;-61
2022/12/11 12:20:09;;;;;;;3.80;2.63;;;19.30;36.70;;;;;;4990310;28;20521;-61
2022/12/11 12:22:50;;;;;;;3.50;3.30;;;19.30;36.70;;;;;;4995607;28;21052;-61
2022/12/11 12:25:27;;;;;;;2.60;2.40;;;19.30;36.70;;;;;;4973436;28;20801;-61
2022/12/11 12:28:12;;;;;;;3.03;2.80;;;19.20;36.60;;;;;;4982458;28;20451;-61
2022/12/11 12:30:47;;;;;;;3.10;2.57;;;19.20;36.70;;;;;;4983115;28;20445;-60
2022/12/11 12:33:18;;;;;;;3.03;2.83;;;19.30;36.70;;;;;;4977180;28;20457;-60
2022/12/11 12:36:09;;;;;;;2.97;2.77;;;19.20;36.70;;;;;;4980110;28;20765;-61
2022/12/11 12:38:56;;;;;;;3.20;2.90;;;19.20;36.70;;;;;;4974591;28;20520;-61
2022/12/11 12:41:34;;;;;;;7.43;2.50;;;19.30;36.70;;;;;;4997324;28;20440;-61
2022/12/11 12:44:04;;;;;;;2.50;2.27;;;19.20;36.60;;;;;;4986305;28;20504;-61
2022/12/11 12:46:45;;;;;;;4.73;2.93;;;19.20;36.60;;;;;;4978718;28;20845;-61
2022/12/11 12:49:16;;;;;;;3.07;2.77;;;19.20;36.70;;;;;;4982839;28;20474;-61
2022/12/11 12:51:43;;;;;;;3.17;2.90;;;19.20;36.60;;;;;;4983967;28;20969;-61
2022/12/11 12:54:14;;;;;;;2.83;2.70;;;19.20;36.70;;;;;;4982540;28;20473;-61
2022/12/11 12:56:42;;;;;;;2.53;2.40;;;19.20;36.60;;;;;;4984931;28;20434;-61
2022/12/11 12:59:22;;;;;;;2.97;2.77;;;19.30;36.80;;;;;;4980012;28;20549;-61
2022/12/11 13:01:54;;;;;;;3.57;3.27;;;19.30;36.70;;;;;;4985211;28;20459;-61
2022/12/11 13:04:40;;;;;;;2.67;2.47;;;19.20;36.70;;;;;;4998294;28;20822;-61
2022/12/11 13:07:25;;;;;;;3.13;2.80;;;19.20;36.70;;;;;;4986843;28;20530;-60
2022/12/11 13:10:00;;;;;;;3.20;3.00;;;19.20;36.60;;;;;;4991097;28;20453;-61
2022/12/11 13:12:33;;;;;;;2.50;2.30;;;19.20;36.70;;;;;;4994068;28;20495;-61
2022/12/11 13:15:00;;;;;;;2.53;2.33;;;19.20;36.70;;;;;;4994348;28;20443;-61